createdAt,value
2022-07-28T00:00:16.538Z,74.72
2022-07-28T00:02:46.597Z,75.79
2022-07-28T00:05:14.021Z,76.33
2022-07-28T00:07:41.611Z,75.88
2022-07-28T00:10:09.594Z,76.07
2022-07-28T00:12:38.102Z,76.09
2022-07-28T00:15:06.236Z,76.34
2022-07-28T00:17:33.361Z,76.81
2022-07-28T00:20:00.555Z,76.63
2022-07-28T00:22:29.677Z,76.98
2022-07-28T00:24:56.969Z,77.30
2022-07-28T00:27:25.128Z,77.99
2022-07-28T00:29:52.099Z,77.86
2022-07-28T00:32:21.058Z,77.70
2022-07-28T00:34:48.449Z,78.41
2022-07-28T00:37:15.546Z,78.36
2022-07-28T00:39:44.062Z,79.15
2022-07-28T00:42:12.569Z,79.33
2022-07-28T00:44:42.903Z,78.98
2022-07-28T00:47:13.187Z,79.12
2022-07-28T00:49:45.753Z,79.92
2022-07-28T00:52:13.953Z,79.72
2022-07-28T00:54:41.167Z,79.60
2022-07-28T00:57:08.267Z,80.02
2022-07-28T00:59:35.442Z,79.92
2022-07-28T01:02:03.607Z,80.02
2022-07-28T01:04:31.323Z,80.65
2022-07-28T01:07:16.770Z,80.93
2022-07-28T01:10:14.790Z,81.15
2022-07-28T01:13:03.197Z,80.94
2022-07-28T01:15:34.107Z,81.03
2022-07-28T01:18:17.811Z,81.13
2022-07-28T01:20:49.580Z,81.32
2022-07-28T01:23:31.761Z,80.89
2022-07-28T01:26:21.399Z,81.13
2022-07-28T01:29:16.526Z,81.60
2022-07-28T01:31:48.398Z,81.17
2022-07-28T01:34:20.418Z,81.35
2022-07-28T01:36:53.639Z,81.77
2022-07-28T01:39:25.375Z,81.92
2022-07-28T01:41:55.264Z,82.23
2022-07-28T01:44:26.972Z,81.78
2022-07-28T01:46:56.345Z,82.46
2022-07-28T01:49:26.857Z,82.14
2022-07-28T01:51:56.381Z,82.42
2022-07-28T01:54:27.938Z,82.90
2022-07-28T01:56:57.474Z,82.67
2022-07-28T01:59:26.474Z,83.70
2022-07-28T02:01:54.789Z,83.46
2022-07-28T02:04:23.957Z,83.95
2022-07-28T02:06:53.389Z,83.82
2022-07-28T02:09:23.263Z,84.15
2022-07-28T02:11:54.288Z,83.87
2022-07-28T02:14:25.994Z,84.16
2022-07-28T02:17:03.963Z,83.77
2022-07-28T02:19:32.742Z,84.48
2022-07-28T02:22:03.550Z,84.67
2022-07-28T02:24:32.826Z,84.99
2022-07-28T02:27:06.382Z,84.50
2022-07-28T02:29:52.185Z,84.83
2022-07-28T02:32:28.754Z,85.56
2022-07-28T02:35:06.019Z,85.80
2022-07-28T02:37:40.480Z,86.68
2022-07-28T02:40:13.947Z,86.78
2022-07-28T02:42:43.351Z,87.56
2022-07-28T02:45:13.400Z,87.56
2022-07-28T02:47:46.567Z,88.02
2022-07-28T02:50:17.106Z,88.09
2022-07-28T02:52:49.795Z,87.67
2022-07-28T02:55:17.852Z,87.56
2022-07-28T02:57:50.887Z,87.50
2022-07-28T03:00:21.776Z,88.10
2022-07-28T03:02:49.459Z,88.01
2022-07-28T03:05:16.953Z,87.55
2022-07-28T03:07:50.766Z,87.86
2022-07-28T03:10:33.458Z,88.10
2022-07-28T03:13:07.062Z,88.52
2022-07-28T03:15:35.839Z,88.83
2022-07-28T03:18:04.780Z,88.66
2022-07-28T03:20:35.020Z,88.19
2022-07-28T03:23:02.642Z,87.65
2022-07-28T03:25:39.601Z,87.72
2022-07-28T03:28:09.591Z,88.04
2022-07-28T03:30:43.269Z,88.27
2022-07-28T03:33:11.715Z,88.92
2022-07-28T03:35:45.084Z,88.84
2022-07-28T03:38:17.766Z,89.07
2022-07-28T03:40:46.610Z,89.18
2022-07-28T03:43:17.058Z,88.77
2022-07-28T03:45:46.498Z,89.16
2022-07-28T03:48:15.387Z,89.35
2022-07-28T03:50:43.226Z,89.06
2022-07-28T03:53:19.214Z,90.14
2022-07-28T03:55:51.151Z,90.18
2022-07-28T03:58:29.183Z,89.17
2022-07-28T04:00:57.671Z,88.94
2022-07-28T04:03:42.529Z,89.48
2022-07-28T04:06:11.270Z,89.40
2022-07-28T04:08:38.306Z,90.03
2022-07-28T04:11:05.451Z,91.34
2022-07-28T04:13:32.692Z,91.85
2022-07-28T04:16:01.726Z,90.63
2022-07-28T04:18:29.343Z,90.40
2022-07-28T04:20:56.236Z,91.48
2022-07-28T04:23:24.283Z,91.44
2022-07-28T04:25:51.935Z,89.79
2022-07-28T04:28:21.638Z,88.38
2022-07-28T04:30:48.854Z,88.64
2022-07-28T04:33:16.392Z,87.03
2022-07-28T04:35:43.549Z,85.20
2022-07-28T04:38:12.389Z,83.06
2022-07-28T04:40:39.818Z,82.52
2022-07-28T04:43:07.021Z,80.61
2022-07-28T04:45:34.690Z,78.87
2022-07-28T04:48:01.969Z,79.83
2022-07-28T04:50:29.076Z,76.48
2022-07-28T04:52:56.178Z,74.91
2022-07-28T04:55:23.712Z,76.38
2022-07-28T04:57:51.674Z,76.56
2022-07-28T05:00:22.736Z,76.60
2022-07-28T05:02:51.736Z,73.48
2022-07-28T05:05:19.235Z,70.74
2022-07-28T05:07:46.500Z,71.42
2022-07-28T05:10:13.999Z,69.46
2022-07-28T05:12:42.669Z,70.84
2022-07-28T05:15:12.546Z,66.72
2022-07-28T05:17:39.879Z,65.61
2022-07-28T05:20:08.822Z,63.20
2022-07-28T05:22:43.990Z,63.26
2022-07-28T05:25:20.325Z,63.19
2022-07-28T05:27:48.241Z,64.62
2022-07-28T05:30:16.075Z,63.78
2022-07-28T05:32:43.635Z,62.14
2022-07-28T05:35:10.843Z,58.26
2022-07-28T05:37:39.067Z,59.20
2022-07-28T05:40:14.275Z,55.59
2022-07-28T05:42:43.322Z,54.92
2022-07-28T05:45:16.322Z,58.37
2022-07-28T05:47:49.643Z,57.54
2022-07-28T05:50:18.588Z,54.01
2022-07-28T05:52:47.141Z,53.38
2022-07-28T05:55:14.782Z,51.41
2022-07-28T05:57:41.884Z,51.69
2022-07-28T06:00:11.826Z,48.70
2022-07-28T06:02:40.262Z,48.28
2022-07-28T06:05:08.283Z,45.33
2022-07-28T06:07:43.640Z,46.94
2022-07-28T06:10:16.826Z,44.88
2022-07-28T06:12:50.031Z,43.98
2022-07-28T06:15:19.752Z,44.09
2022-07-28T06:17:46.764Z,42.53
2022-07-28T06:20:14.782Z,42.87
2022-07-28T06:22:47.423Z,42.12
2022-07-28T06:25:19.123Z,42.61
2022-07-28T06:27:47.219Z,41.96
2022-07-28T06:30:15.219Z,42.34
2022-07-28T06:32:42.696Z,41.61
2022-07-28T06:35:11.212Z,41.04
2022-07-28T06:37:38.342Z,40.27
2022-07-28T06:40:05.450Z,38.83
2022-07-28T06:42:32.582Z,39.54
2022-07-28T06:45:00.062Z,38.55
2022-07-28T06:47:27.715Z,38.76
2022-07-28T06:49:54.849Z,37.46
2022-07-28T06:52:22.396Z,36.74
2022-07-28T06:54:53.522Z,36.57
2022-07-28T06:57:28.187Z,37.00
2022-07-28T07:00:05.749Z,36.67
2022-07-28T07:02:34.256Z,36.39
2022-07-28T07:05:01.347Z,35.93
2022-07-28T07:07:28.420Z,35.38
2022-07-28T07:09:55.667Z,35.53
2022-07-28T07:12:22.818Z,35.79
2022-07-28T07:14:49.963Z,35.28
2022-07-28T07:17:17.444Z,34.58
2022-07-28T07:19:44.721Z,34.51
2022-07-28T07:22:15.130Z,35.10
2022-07-28T07:24:42.548Z,34.79
2022-07-28T07:27:09.742Z,34.80
2022-07-28T07:29:36.752Z,33.54
2022-07-28T07:32:06.926Z,34.14
2022-07-28T07:34:39.606Z,35.33
2022-07-28T07:37:10.585Z,34.34
2022-07-28T07:39:38.174Z,34.68
2022-07-28T07:42:05.396Z,33.16
2022-07-28T07:44:32.780Z,32.90
2022-07-28T07:47:00.227Z,33.15
2022-07-28T07:49:27.469Z,33.32
2022-07-28T07:52:12.867Z,33.31
2022-07-28T07:54:40.023Z,33.40
2022-07-28T07:57:07.457Z,33.27
2022-07-28T07:59:34.681Z,33.65
2022-07-28T08:02:02.266Z,34.12
2022-07-28T08:04:29.490Z,34.27
2022-07-28T08:06:57.081Z,34.41
2022-07-28T08:09:24.404Z,34.31
2022-07-28T08:11:51.550Z,33.48
2022-07-28T08:14:18.726Z,33.89
2022-07-28T08:16:45.907Z,33.13
2022-07-28T08:19:12.753Z,32.83
2022-07-28T08:21:39.852Z,31.66
2022-07-28T08:24:07.644Z,32.52
2022-07-28T08:26:34.733Z,32.93
2022-07-28T08:29:01.830Z,32.03
2022-07-28T08:31:29.030Z,31.85
2022-07-28T08:33:58.820Z,32.12
2022-07-28T08:36:25.939Z,32.31
2022-07-28T08:38:52.968Z,31.33
2022-07-28T08:41:33.811Z,31.10
2022-07-28T08:44:04.305Z,31.33
2022-07-28T08:46:38.907Z,31.76
2022-07-28T08:49:09.409Z,30.60
2022-07-28T08:51:38.186Z,30.10
2022-07-28T08:54:06.466Z,30.53
2022-07-28T08:56:33.697Z,31.17
2022-07-28T08:59:02.202Z,30.84
2022-07-28T09:01:38.694Z,31.22
2022-07-28T09:04:11.765Z,30.12
2022-07-28T09:06:43.019Z,31.00
2022-07-28T09:09:10.918Z,30.59
2022-07-28T09:11:39.088Z,31.12
2022-07-28T09:14:07.106Z,30.26
2022-07-28T09:16:34.705Z,30.08
2022-07-28T09:19:01.739Z,30.76
2022-07-28T09:21:29.320Z,31.03
2022-07-28T09:23:56.489Z,30.89
2022-07-28T09:26:23.525Z,30.19
2022-07-28T09:28:57.187Z,30.19
2022-07-28T09:31:26.455Z,29.75
2022-07-28T09:34:06.067Z,29.75
2022-07-28T09:36:42.271Z,30.65
2022-07-28T09:39:09.627Z,32.29
2022-07-28T09:41:55.440Z,29.91
2022-07-28T09:44:24.581Z,29.24
2022-07-28T09:46:51.956Z,28.78
2022-07-28T09:49:21.936Z,29.68
2022-07-28T09:52:04.040Z,30.24
2022-07-28T09:54:31.114Z,31.03
2022-07-28T09:56:58.416Z,29.82
2022-07-28T09:59:26.392Z,30.59
2022-07-28T10:02:02.662Z,30.42
2022-07-28T10:04:36.208Z,30.72
2022-07-28T10:07:08.039Z,30.16
2022-07-28T10:09:35.096Z,30.35
2022-07-28T10:12:22.172Z,30.52
2022-07-28T10:14:52.024Z,30.80
2022-07-28T10:17:35.553Z,31.68
2022-07-28T10:20:06.110Z,30.84
2022-07-28T10:22:39.482Z,32.05
2022-07-28T10:25:12.965Z,31.21
2022-07-28T10:27:45.377Z,30.74
2022-07-28T10:30:13.914Z,31.82
2022-07-28T10:32:45.938Z,31.49
2022-07-28T10:35:15.611Z,31.09
2022-07-28T10:38:16.531Z,31.73
2022-07-28T10:40:47.164Z,31.67
2022-07-28T10:43:15.525Z,31.05
2022-07-28T10:48:34.404Z,31.64
2022-07-28T10:51:05.998Z,30.40
2022-07-28T10:53:41.004Z,30.70
2022-07-28T10:56:26.004Z,30.73
2022-07-28T10:59:29.798Z,29.51
2022-07-28T11:01:57.052Z,29.89
2022-07-28T11:04:48.973Z,31.30
2022-07-28T11:07:17.547Z,29.62
2022-07-28T11:09:47.910Z,30.38
2022-07-28T11:12:16.077Z,31.10
2022-07-28T11:14:45.172Z,30.26
2022-07-28T11:17:16.613Z,29.30
2022-07-28T11:22:45.742Z,28.66
2022-07-28T11:25:18.818Z,29.11
2022-07-28T11:27:52.194Z,29.87
2022-07-28T11:30:19.829Z,29.15
2022-07-28T11:32:55.898Z,30.07
2022-07-28T11:35:27.534Z,30.79
2022-07-28T11:38:03.863Z,29.82
2022-07-28T11:40:32.386Z,30.10
2022-07-28T11:43:36.245Z,30.84
2022-07-28T11:46:11.403Z,31.34
2022-07-28T11:48:40.860Z,30.91
2022-07-28T11:51:07.842Z,31.65
2022-07-28T11:53:38.948Z,31.36
2022-07-28T11:56:09.543Z,33.31
2022-07-28T11:58:37.990Z,32.33
2022-07-28T12:01:32.454Z,32.51
2022-07-28T12:04:15.444Z,33.07
2022-07-28T12:06:51.224Z,33.35
2022-07-28T12:09:41.322Z,33.00
2022-07-28T12:12:13.024Z,33.93
2022-07-28T12:14:41.151Z,34.44
2022-07-28T12:17:08.508Z,34.78
2022-07-28T12:19:35.887Z,35.24
2022-07-28T12:22:15.548Z,35.42
2022-07-28T12:24:44.910Z,34.45
2022-07-28T12:27:14.756Z,35.58
2022-07-28T12:29:42.873Z,35.94
2022-07-28T12:32:10.484Z,34.39
2022-07-28T12:34:40.477Z,35.01
2022-07-28T12:37:12.685Z,35.00
2022-07-28T12:39:42.934Z,34.75
2022-07-28T12:42:12.632Z,33.79
2022-07-28T12:44:41.930Z,33.66
2022-07-28T12:47:13.015Z,33.10
2022-07-28T12:49:42.933Z,34.53
2022-07-28T12:52:22.089Z,34.01
2022-07-28T12:54:55.888Z,32.48
2022-07-28T12:57:51.626Z,32.18
2022-07-28T13:00:37.167Z,33.26
2022-07-28T13:03:26.343Z,33.50
2022-07-28T13:06:04.240Z,33.55
2022-07-28T13:08:44.646Z,33.44
2022-07-28T13:11:42.112Z,33.39
2022-07-28T13:14:01.219Z,33.40
2022-07-28T13:16:30.080Z,33.75
2022-07-28T13:18:59.728Z,33.32
2022-07-28T13:21:58.151Z,34.55
2022-07-28T13:24:28.434Z,35.77
2022-07-28T13:26:56.947Z,35.96
2022-07-28T13:29:24.860Z,36.76
2022-07-28T13:31:55.060Z,37.92
2022-07-28T13:34:22.575Z,37.82
2022-07-28T13:36:49.903Z,38.45
2022-07-28T13:39:17.129Z,38.53
2022-07-28T13:41:57.812Z,38.46
2022-07-28T13:44:27.853Z,38.92
2022-07-28T13:46:56.529Z,39.05
2022-07-28T13:49:24.436Z,39.05
2022-07-28T13:51:51.679Z,39.72
2022-07-28T13:54:19.751Z,39.57
2022-07-28T13:57:12.026Z,40.29
2022-07-28T13:59:40.164Z,40.41
2022-07-28T14:02:15.434Z,40.93
2022-07-28T14:04:45.677Z,40.46
2022-07-28T14:07:13.312Z,41.40
2022-07-28T14:09:48.301Z,42.12
2022-07-28T14:12:15.549Z,41.85
2022-07-28T14:14:47.920Z,42.59
2022-07-28T14:17:44.427Z,43.11
2022-07-28T14:20:05.062Z,43.19
2022-07-28T14:22:32.212Z,43.82
2022-07-28T14:24:59.580Z,43.92
2022-07-28T14:27:29.227Z,44.36
2022-07-28T14:29:57.297Z,45.72
2022-07-28T14:32:27.458Z,47.55
2022-07-28T14:34:54.738Z,50.47
2022-07-28T14:37:21.617Z,51.80
2022-07-28T14:39:48.841Z,52.76
2022-07-28T14:42:15.983Z,53.77
2022-07-28T14:44:43.422Z,55.46
2022-07-28T14:47:10.559Z,55.65
2022-07-28T14:49:38.505Z,56.54
2022-07-28T14:52:27.976Z,56.33
2022-07-28T14:54:55.555Z,58.15
2022-07-28T14:57:24.493Z,59.92
2022-07-28T15:01:09.769Z,63.13
2022-07-28T15:03:37.766Z,64.90
2022-07-28T15:06:10.422Z,64.34
2022-07-28T15:08:38.389Z,64.41
2022-07-28T15:11:23.981Z,69.15
2022-07-28T15:13:51.149Z,70.58
2022-07-28T15:16:19.220Z,77.00
2022-07-28T15:18:46.696Z,79.63
2022-07-28T15:21:16.935Z,82.83
2022-07-28T15:23:44.664Z,84.76
2022-07-28T15:26:14.695Z,86.01
2022-07-28T15:28:41.819Z,84.67
2022-07-28T15:31:09.058Z,84.61
2022-07-28T15:33:45.473Z,85.86
2022-07-28T15:36:17.742Z,87.02
2022-07-28T15:38:49.277Z,88.15
2022-07-28T15:41:19.337Z,88.68
2022-07-28T15:43:46.738Z,88.63
2022-07-28T15:46:14.802Z,93.04
2022-07-28T15:48:44.094Z,90.72
2022-07-28T15:51:11.849Z,90.82
2022-07-28T15:53:39.323Z,91.54
2022-07-28T15:56:06.275Z,91.55
2022-07-28T15:58:34.038Z,92.11
2022-07-28T16:01:02.069Z,95.32
2022-07-28T16:03:30.417Z,94.63
2022-07-28T16:05:59.070Z,94.24
2022-07-28T16:08:27.195Z,94.49
2022-07-28T16:10:55.020Z,94.00
2022-07-28T16:13:35.676Z,96.66
2022-07-28T16:16:16.656Z,96.44
2022-07-28T16:18:44.441Z,98.43
2022-07-28T16:21:11.977Z,95.06
2022-07-28T16:23:39.066Z,94.51
2022-07-28T16:26:10.266Z,95.29
2022-07-28T16:28:37.616Z,95.25
2022-07-28T16:31:06.618Z,94.60
2022-07-28T16:33:34.117Z,93.91
2022-07-28T16:36:04.168Z,94.75
2022-07-28T16:38:31.289Z,95.65
2022-07-28T16:40:58.653Z,95.23
2022-07-28T16:43:25.693Z,96.54
2022-07-28T16:45:52.949Z,97.01
2022-07-28T16:48:20.973Z,96.80
2022-07-28T16:50:49.844Z,97.14
2022-07-28T16:53:17.208Z,95.69
2022-07-28T16:55:45.055Z,97.48
2022-07-28T16:58:12.272Z,97.22
2022-07-28T17:00:39.443Z,96.48
2022-07-28T17:03:14.184Z,95.28
2022-07-28T17:05:41.360Z,94.23
2022-07-28T17:08:09.569Z,94.89
2022-07-28T17:10:36.724Z,94.06
2022-07-28T17:13:05.782Z,95.40
2022-07-28T17:15:36.013Z,94.19
2022-07-28T17:18:03.441Z,95.45
2022-07-28T17:20:30.922Z,94.67
2022-07-28T17:23:00.178Z,95.99
2022-07-28T17:26:20.416Z,94.15
2022-07-28T17:28:17.946Z,93.69
2022-07-28T17:30:45.039Z,93.82
2022-07-28T17:33:15.977Z,94.73
2022-07-28T17:36:09.117Z,95.01
2022-07-28T17:38:36.681Z,95.42
2022-07-28T17:41:04.536Z,96.04
2022-07-28T17:43:32.617Z,95.04
2022-07-28T17:46:00.899Z,95.55
2022-07-28T17:48:28.748Z,96.19
2022-07-28T17:50:55.894Z,95.83
2022-07-28T17:53:24.507Z,94.92
2022-07-28T17:56:01.272Z,94.70
2022-07-28T17:58:34.471Z,95.34
2022-07-28T18:01:23.657Z,96.72
2022-07-28T18:03:57.692Z,96.62
2022-07-28T18:06:34.845Z,96.02
2022-07-28T18:09:08.725Z,96.52
2022-07-28T18:11:56.076Z,97.94
2022-07-28T18:14:30.210Z,97.39
2022-07-28T18:19:45.646Z,98.01
2022-07-28T18:22:13.502Z,98.53
2022-07-28T18:24:40.765Z,98.04
2022-07-28T18:27:07.959Z,99.33
2022-07-28T18:29:38.436Z,99.46
2022-07-28T18:32:09.608Z,99.37
2022-07-28T18:34:37.215Z,99.28
2022-07-28T18:37:05.134Z,99.07
2022-07-28T18:39:32.221Z,99.86
2022-07-28T18:41:59.304Z,99.12
2022-07-28T18:44:28.665Z,98.88
2022-07-28T18:46:58.114Z,99.02
2022-07-28T18:49:25.358Z,98.10
2022-07-28T18:51:53.706Z,98.55
2022-07-28T18:54:27.438Z,98.22
2022-07-28T18:56:55.809Z,97.71
2022-07-28T18:59:23.081Z,98.24
2022-07-28T19:01:50.401Z,97.85
2022-07-28T19:04:18.101Z,97.76
2022-07-28T19:06:45.554Z,97.97
2022-07-28T19:09:12.755Z,98.09
2022-07-28T19:11:45.347Z,98.98
2022-07-28T19:14:14.088Z,98.31
2022-07-28T19:16:41.850Z,98.71
2022-07-28T19:19:11.657Z,98.76
2022-07-28T19:21:42.907Z,98.60
2022-07-28T19:24:11.760Z,98.15
2022-07-28T19:26:39.394Z,98.41
2022-07-28T19:29:06.873Z,98.57
2022-07-28T19:31:34.342Z,99.08
2022-07-28T19:34:01.696Z,99.39
2022-07-28T19:36:29.118Z,100.00
2022-07-28T19:39:03.676Z,99.50
2022-07-28T19:41:32.038Z,98.99
2022-07-28T19:43:59.332Z,98.31
2022-07-28T19:46:26.648Z,98.94
2022-07-28T19:48:54.581Z,99.49
2022-07-28T19:51:22.468Z,99.04
2022-07-28T19:53:54.963Z,98.71
2022-07-28T19:56:30.528Z,99.44
2022-07-28T19:59:02.598Z,100.00
2022-07-28T20:01:29.880Z,100.00
2022-07-28T20:04:00.879Z,100.00
2022-07-28T20:06:33.317Z,100.00
2022-07-28T20:09:02.015Z,100.00
2022-07-28T20:11:29.330Z,100.00
2022-07-28T20:14:05.478Z,100.00
2022-07-28T20:16:36.010Z,100.00
2022-07-28T20:19:03.338Z,100.00
2022-07-28T20:21:38.424Z,100.00
2022-07-28T20:24:07.047Z,100.00
2022-07-28T20:26:34.107Z,100.00
2022-07-28T20:29:08.932Z,100.00
2022-07-28T20:31:37.144Z,100.00
2022-07-28T20:34:07.611Z,100.00
2022-07-28T20:36:35.541Z,100.00
2022-07-28T20:39:15.767Z,100.00
2022-07-28T20:41:50.296Z,100.00
2022-07-28T20:44:28.872Z,100.00
2022-07-28T20:47:04.549Z,100.00
2022-07-28T20:49:32.139Z,100.00
2022-07-28T20:51:59.773Z,100.00
2022-07-28T20:54:28.555Z,100.00
2022-07-28T20:56:56.412Z,99.99
2022-07-28T20:59:27.791Z,99.75
2022-07-28T21:01:55.548Z,99.49
2022-07-28T21:04:24.574Z,98.97
2022-07-28T21:06:55.359Z,100.00
2022-07-28T21:09:34.798Z,100.00
2022-07-28T21:12:04.014Z,100.00
2022-07-28T21:14:34.006Z,100.00
2022-07-28T21:17:02.993Z,100.00
2022-07-28T21:19:30.713Z,100.00
2022-07-28T21:21:57.693Z,100.00
2022-07-28T21:24:24.959Z,100.00
2022-07-28T21:26:53.729Z,100.00
2022-07-28T21:32:04.771Z,100.00
2022-07-28T21:34:35.101Z,100.00
2022-07-28T21:37:07.037Z,100.00
2022-07-28T21:39:35.358Z,100.00
2022-07-28T21:42:09.325Z,100.00
2022-07-28T21:44:38.230Z,100.00
2022-07-28T21:47:05.533Z,100.00
2022-07-28T21:49:35.974Z,100.00
2022-07-28T21:52:06.304Z,100.00
2022-07-28T21:54:36.578Z,100.00
2022-07-28T21:57:04.123Z,100.00
2022-07-28T21:59:49.741Z,100.00
2022-07-28T22:02:17.193Z,100.00
2022-07-28T22:04:44.688Z,100.00
2022-07-28T22:07:12.428Z,100.00
2022-07-28T22:09:42.831Z,100.00
2022-07-28T22:12:13.517Z,100.00
2022-07-28T22:14:43.951Z,100.00
2022-07-28T22:17:11.474Z,100.00
2022-07-28T22:19:40.761Z,100.00
2022-07-28T22:22:08.093Z,100.00
2022-07-28T22:24:38.153Z,100.00
2022-07-28T22:27:06.017Z,100.00
2022-07-28T22:29:33.832Z,100.00
2022-07-28T22:34:57.937Z,100.00
2022-07-28T22:37:25.278Z,100.00
2022-07-28T22:42:33.638Z,100.00
2022-07-28T22:45:01.355Z,100.00
2022-07-28T22:47:28.400Z,100.00
2022-07-28T22:49:56.465Z,100.00
2022-07-28T22:52:30.421Z,100.00
2022-07-28T22:54:58.016Z,100.00
2022-07-28T22:57:26.429Z,100.00
2022-07-28T22:59:56.517Z,100.00
2022-07-28T23:02:26.356Z,100.00
2022-07-28T23:04:53.950Z,100.00
2022-07-28T23:07:51.443Z,100.00
2022-07-28T23:10:12.341Z,100.00
2022-07-28T23:12:42.428Z,100.00
2022-07-28T23:15:09.987Z,100.00
2022-07-28T23:17:37.187Z,100.00
2022-07-28T23:20:08.356Z,100.00
2022-07-28T23:22:35.508Z,100.00
2022-07-28T23:25:04.318Z,100.00
2022-07-28T23:27:32.130Z,100.00
2022-07-28T23:30:01.814Z,100.00
2022-07-28T23:32:29.304Z,100.00
2022-07-28T23:35:00.040Z,100.00
2022-07-28T23:37:27.741Z,100.00
2022-07-28T23:39:59.964Z,100.00
2022-07-28T23:42:28.541Z,100.00
2022-07-28T23:44:55.681Z,100.00
2022-07-28T23:47:22.877Z,100.00
2022-07-28T23:49:50.025Z,100.00
2022-07-28T23:52:17.317Z,100.00
2022-07-28T23:54:44.621Z,100.00
2022-07-28T23:57:11.804Z,100.00
2022-07-28T23:59:39.056Z,100.00
